Time;durP1;ratioP1;P1;durP2;ratioP2;P2;SDS_P1;SDS_P2;PMS_P1;PMS_P2;Temp;Humidity;BMP_temperature;BMP_pressure;BME280_temperature;BME280_humidity;BME280_pressure;Samples;Min_cycle;Max_cycle;Signal;HPM_P1;HPM_P2
2021/12/02 00:00:57;;;;;;;;;3.00;1.00;;;;;7.72;69.62;99726.91;5057197;28;45501;-60
2021/12/02 00:03:26;;;;;;;;;2.25;1.75;;;;;7.45;68.87;99679.78;5055439;28;46964;-59
2021/12/02 00:05:52;;;;;;;;;3.00;2.00;;;;;7.49;69.16;99699.28;5055998;28;45434;-61
2021/12/02 00:08:18;;;;;;;;;2.80;2.80;;;;;7.66;69.36;99738.72;5056588;28;45384;-63
2021/12/02 00:10:43;;;;;;;;;3.50;2.75;;;;;7.67;69.43;99723.13;5056963;28;45582;-64
2021/12/02 00:13:10;;;;;;;;;2.75;1.00;;;;;7.71;69.55;99722.50;5056271;28;45618;-64
2021/12/02 00:15:45;;;;;;;;;1.60;1.60;;;;;7.71;69.57;99721.66;5056729;28;45407;-60
2021/12/02 00:23:52;;;;;;;;;5.80;3.40;;;;;7.67;69.38;99725.88;5055735;28;45387;-62
2021/12/02 00:26:19;;;;;;;;;6.00;3.00;;;;;7.69;69.33;99731.97;5054825;28;45720;-62
2021/12/02 00:28:45;;;;;;;;;3.40;3.40;;;;;7.54;69.89;99711.25;5056385;28;45379;-63
2021/12/02 00:31:16;;;;;;;;;1.75;1.75;;;;;7.67;69.52;99745.84;5038014;28;45548;-63
2021/12/02 00:33:47;;;;;;;;;2.40;2.00;;;;;7.53;69.98;99716.91;5054971;28;45325;-62
2021/12/02 00:36:13;;;;;;;;;3.80;2.00;;;;;7.67;69.63;99739.53;5053366;28;45563;-61
2021/12/02 00:38:40;;;;;;;;;4.60;2.80;;;;;7.66;69.90;99749.63;5054602;28;45439;-59
2021/12/02 00:41:11;;;;;;;;;5.40;3.60;;;;;7.62;70.06;99737.47;5037914;28;45559;-63
2021/12/02 00:43:36;;;;;;;;;2.40;2.00;;;;;7.45;69.64;99713.38;5054051;28;46265;-63
2021/12/02 00:46:05;;;;;;;;;2.75;2.75;;;;;7.63;69.54;99750.06;5054404;28;45564;-61
2021/12/02 00:48:30;;;;;;;;;6.40;4.60;;;;;7.71;69.92;99760.75;5055518;28;45454;-60
2021/12/02 00:50:56;;;;;;;;;3.50;2.75;;;;;7.60;70.26;99751.31;5038037;28;45659;-61
2021/12/02 00:53:21;;;;;;;;;2.25;2.25;;;;;7.64;70.23;99756.38;5037461;28;45563;-63
2021/12/02 00:55:47;;;;;;;;;5.75;2.00;;;;;7.65;70.44;99758.88;5037582;28;45403;-63
2021/12/02 00:58:18;;;;;;;;;3.00;1.50;;;;;7.28;70.26;99704.00;5054033;28;45294;-63
2021/12/02 01:00:45;;;;;;;;;2.20;1.00;;;;;7.64;70.95;99767.28;5055921;28;45265;-61
2021/12/02 01:03:11;;;;;;;;;6.00;3.20;;;;;7.43;70.94;99740.03;5087765;27;46183;-60
2021/12/02 01:05:37;;;;;;;;;3.00;3.00;;;;;7.64;70.95;99772.75;5037210;28;45303;-60
2021/12/02 01:08:02;;;;;;;;;5.00;1.50;;;;;7.44;70.54;99741.75;5054038;28;45381;-62
2021/12/02 01:10:28;;;;;;;;;5.50;3.00;;;;;7.60;71.07;99767.72;5071335;28;45584;-63
2021/12/02 01:12:54;;;;;;;;;3.00;2.00;;;;;7.62;70.78;99775.69;5055331;28;45482;-63
2021/12/02 01:15:19;;;;;;;;;2.00;2.00;;;;;7.64;70.91;99781.78;5037244;28;45427;-64
2021/12/02 01:17:45;;;;;;;;;3.00;2.00;;;;;7.61;71.33;99784.94;5055210;28;45453;-64
2021/12/02 01:20:11;;;;;;;;;5.00;5.00;;;;;7.60;71.51;99783.28;5055076;28;45392;-64
2021/12/02 01:22:37;;;;;;;;;2.20;2.20;;;;;7.33;70.98;99747.88;5055021;28;46579;-60
2021/12/02 01:25:04;;;;;;;;;5.60;2.00;;;;;7.56;71.10;99787.47;5054937;28;45452;-61
2021/12/02 01:27:30;;;;;;;;;4.60;4.60;;;;;7.52;71.49;99780.78;5070340;28;45302;-61
2021/12/02 01:29:55;;;;;;;;;2.00;2.00;;;;;7.59;71.37;99787.06;5053678;28;45398;-60
2021/12/02 01:32:21;;;;;;;;;7.00;5.00;;;;;7.62;71.69;99791.25;5053558;28;45596;-62
2021/12/02 01:34:46;;;;;;;;;5.00;3.00;;;;;7.63;71.43;99790.19;5036857;28;45383;-64
2021/12/02 01:37:12;;;;;;;;;5.00;5.00;;;;;7.56;71.35;99780.13;5037276;28;45358;-64
2021/12/02 01:39:38;;;;;;;;;5.50;4.00;;;;;7.35;71.88;99745.75;5034701;28;45592;-63
2021/12/02 01:42:03;;;;;;;;;3.00;3.00;;;;;7.63;72.13;99784.72;5073372;28;45573;-63
2021/12/02 01:44:29;;;;;;;;;6.00;6.00;;;;;7.68;71.71;99804.06;5073519;28;45536;-58
2021/12/02 01:46:57;;;;;;;;;7.00;7.00;;;;;7.67;71.97;99800.47;5074973;28;45404;-60
2021/12/02 01:49:26;;;;;;;;;5.40;4.00;;;;;7.70;71.98;99815.59;5074261;28;45398;-54
2021/12/02 01:51:55;;;;;;;;;2.40;2.20;;;;;7.69;71.70;99820.19;5074080;28;45708;-61
2021/12/02 01:54:25;;;;;;;;;6.80;6.00;;;;;7.67;71.70;99814.13;5075013;28;45519;-64
2021/12/02 01:56:53;;;;;;;;;7.40;5.60;;;;;7.58;72.02;99818.97;5075349;28;45379;-60
2021/12/02 01:59:38;;;;;;;;;10.00;7.40;;;;;7.58;72.00;99824.44;5095621;27;45710;-59
2021/12/02 02:02:10;;;;;;;;;5.60;5.20;;;;;7.57;71.81;99828.22;5055177;27;46678;-62
2021/12/02 02:04:35;;;;;;;;;6.80;5.40;;;;;7.54;71.71;99827.81;5036978;28;45293;-63
2021/12/02 02:07:04;;;;;;;;;5.00;5.00;;;;;7.35;71.76;99807.72;5087166;27;45211;-59
2021/12/02 02:09:32;;;;;;;;;7.40;7.40;;;;;7.32;71.52;99803.53;5054985;28;45637;-60
2021/12/02 02:11:59;;;;;;;;;5.20;5.20;;;;;7.53;72.33;99835.16;5053302;28;46572;-61
2021/12/02 02:14:25;;;;;;;;;4.20;4.20;;;;;7.43;71.95;99811.03;5053361;28;45438;-61
2021/12/02 02:16:51;;;;;;;;;5.00;5.00;;;;;7.59;71.56;99849.88;5055036;28;45415;-61
2021/12/02 02:19:16;;;;;;;;;6.00;5.50;;;;;7.57;71.66;99844.63;5070122;27;45547;-62
2021/12/02 02:21:42;;;;;;;;;6.00;6.00;;;;;7.61;71.29;99853.22;5053248;28;45542;-61
2021/12/02 02:24:13;;;;;;;;;3.80;3.80;;;;;7.57;71.65;99857.41;5053134;28;45474;-57
2021/12/02 02:26:38;;;;;;;;;5.40;4.60;;;;;7.54;71.36;99864.19;5053961;28;45314;-60
2021/12/02 02:29:05;;;;;;;;;5.00;5.00;;;;;7.40;71.16;99838.78;5054688;28;45246;-60
2021/12/02 02:31:31;;;;;;;;;3.40;3.40;;;;;7.58;71.34;99864.59;5052936;28;48050;-61
2021/12/02 02:33:57;;;;;;;;;4.60;3.80;;;;;7.34;71.12;99831.44;5035882;28;45838;-61
2021/12/02 02:36:25;;;;;;;;;4.60;4.60;;;;;7.46;71.37;99858.91;5053066;28;45308;-62
2021/12/02 02:38:57;;;;;;;;;6.40;4.60;;;;;7.51;71.22;99861.84;5054455;28;45284;-57
2021/12/02 02:41:25;;;;;;;;;8.20;6.00;;;;;7.47;71.12;99863.31;5053760;28;46195;-62
2021/12/02 02:43:52;;;;;;;;;6.20;6.20;;;;;7.49;71.46;99874.03;5052752;28;45421;-62
2021/12/02 02:46:26;;;;;;;;;9.20;7.00;;;;;7.55;71.03;99884.13;5054150;28;45516;-63
2021/12/02 02:48:52;;;;;;;;;2.80;1.60;;;;;7.51;71.43;99885.56;5053271;28;45297;-61
2021/12/02 02:51:18;;;;;;;;;9.00;5.80;;;;;7.34;71.46;99866.94;5035989;28;45410;-62
2021/12/02 02:53:44;;;;;;;;;5.25;3.00;;;;;7.52;71.23;99887.28;5052289;28;45813;-63
2021/12/02 02:56:13;;;;;;;;;3.00;3.00;;;;;7.50;71.10;99887.50;5052613;28;45247;-63
2021/12/02 02:58:59;;;;;;;;;4.20;4.20;;;;;7.52;71.25;99887.28;5053848;28;45554;-60
2021/12/02 03:04:06;;;;;;;;;6.00;3.00;;;;;7.52;70.79;99890.00;5074677;27;45357;-62
2021/12/02 03:06:54;;;;;;;;;5.40;4.60;;;;;7.49;70.92;99887.69;5061103;28;45418;-60
2021/12/02 03:11:56;;;;;;;;;3.40;1.00;;;;;7.45;69.79;99896.31;5075145;27;45836;-61
2021/12/02 03:14:52;;;;;;;;;2.20;2.20;;;;;7.17;69.55;99856.44;5074981;28;45463;-60
2021/12/02 03:17:18;;;;;;;;;2.20;2.20;;;;;7.45;69.82;99895.47;5073579;28;45409;-63
2021/12/02 03:19:45;;;;;;;;;2.00;2.00;;;;;7.34;69.79;99894.22;5075429;28;45529;-62
2021/12/02 03:22:11;;;;;;;;;2.60;1.40;;;;;7.40;69.99;99923.41;5075783;28;45363;-62
2021/12/02 03:24:36;;;;;;;;;2.00;2.00;;;;;7.35;68.42;99909.56;5077315;27;45197;-61
2021/12/02 03:27:02;;;;;;;;;1.00;0.00;;;;;7.32;68.50;99926.38;5074365;28;45264;-59
2021/12/02 03:29:28;;;;;;;;;3.00;1.25;;;;;7.04;68.39;99884.59;5077682;28;45300;-60
2021/12/02 03:31:53;;;;;;;;;2.00;2.00;;;;;7.27;68.78;99920.69;5110112;27;47086;-61
2021/12/02 03:34:19;;;;;;;;;1.00;1.00;;;;;7.29;68.93;99918.59;5077062;28;45341;-60
2021/12/02 03:36:50;;;;;;;;;2.75;1.00;;;;;7.31;68.70;99935.63;5077608;27;45386;-62
2021/12/02 03:39:16;;;;;;;;;4.20;2.00;;;;;7.32;68.74;99920.91;5077549;28;45633;-64
2021/12/02 03:41:41;;;;;;;;;1.00;1.00;;;;;7.33;68.42;99922.59;5075781;28;45726;-61
2021/12/02 03:44:07;;;;;;;;;1.00;1.00;;;;;7.25;68.12;99929.09;5075938;28;45415;-58
2021/12/02 03:46:32;;;;;;;;;0.25;0.25;;;;;7.11;68.23;99911.88;5077365;27;45286;-58
2021/12/02 03:48:59;;;;;;;;;0.50;0.50;;;;;7.26;68.35;99928.03;5077431;28;45600;-61
2021/12/02 03:51:24;;;;;;;;;0.60;0.00;;;;;7.20;68.47;99923.41;5076252;28;45772;-66
2021/12/02 03:53:50;;;;;;;;;1.00;1.00;;;;;7.15;68.36;99921.31;5077210;28;45408;-63
2021/12/02 03:56:16;;;;;;;;;2.00;2.00;;;;;7.17;68.40;99938.31;5077370;27;45387;-63
2021/12/02 03:58:42;;;;;;;;;2.50;1.00;;;;;7.20;67.82;99947.97;5059046;28;45461;-63
2021/12/02 04:01:08;;;;;;;;;1.20;1.20;;;;;7.20;68.01;99947.97;5089828;27;46537;-63
2021/12/02 04:03:34;;;;;;;;;0.75;0.50;;;;;7.19;67.85;99949.03;5038665;28;45607;-61
2021/12/02 04:05:59;;;;;;;;;5.00;1.00;;;;;7.14;66.43;99952.38;5056821;28;45268;-61
2021/12/02 04:08:31;;;;;;;;;0.50;0.50;;;;;6.90;66.34;99934.72;5055716;28;45631;-62
2021/12/02 04:11:21;;;;;;;;;1.00;1.00;;;;;7.01;65.71;99955.94;5056196;28;45615;-64
2021/12/02 04:16:34;;;;;;;;;3.00;2.00;;;;;7.14;65.07;99949.66;5041352;28;45509;-61
2021/12/02 04:19:01;;;;;;;;;0.00;0.00;;;;;7.16;64.27;99950.28;5055022;28;45385;-61
2021/12/02 04:21:26;;;;;;;;;1.40;0.00;;;;;7.22;63.40;99955.97;5038468;28;46474;-60
2021/12/02 04:23:52;;;;;;;;;3.00;0.50;;;;;7.10;63.11;99936.66;5056461;28;45459;-60
2021/12/02 04:26:17;;;;;;;;;2.00;0.00;;;;;7.05;63.00;99956.38;5055857;28;45483;-65
2021/12/02 04:28:43;;;;;;;;;0.25;0.00;;;;;7.01;63.02;99961.41;5055155;28;45343;-62
2021/12/02 04:31:08;;;;;;;;;2.00;1.00;;;;;6.95;62.45;99953.19;5055949;28;46586;-62
2021/12/02 04:33:34;;;;;;;;;1.00;1.00;;;;;6.62;63.00;99914.75;5056318;28;45362;-62
2021/12/02 04:36:00;;;;;;;;;3.00;2.00;;;;;6.89;61.70;99973.97;5054956;28;45708;-63
2021/12/02 04:38:26;;;;;;;;;1.40;1.20;;;;;6.83;62.34;99985.72;5055159;28;45358;-59
2021/12/02 04:40:52;;;;;;;;;2.20;2.20;;;;;6.76;62.67;99996.59;5054304;28;45918;-60
2021/12/02 04:43:18;;;;;;;;;0.00;0.00;;;;;6.63;62.44;99986.50;5088462;27;45392;-59
2021/12/02 04:45:43;;;;;;;;;0.25;0.25;;;;;6.61;62.98;99994.88;5088543;27;45692;-61
2021/12/02 04:48:09;;;;;;;;;0.25;0.25;;;;;6.59;63.04;99996.97;5056576;28;45546;-62
2021/12/02 04:50:34;;;;;;;;;0.00;0.00;;;;;6.56;62.98;100015.63;5055671;28;45396;-63
2021/12/02 04:53:00;;;;;;;;;1.00;1.00;;;;;6.53;63.11;100002.38;5055877;28;45382;-62
2021/12/02 04:55:25;;;;;;;;;1.25;1.00;;;;;6.50;64.11;100009.94;5054713;28;45388;-63
2021/12/02 04:57:51;;;;;;;;;0.25;0.25;;;;;6.49;64.00;100013.72;5088477;27;45364;-61
2021/12/02 05:00:17;;;;;;;;;3.00;1.00;;;;;6.48;63.69;100022.09;5055217;28;45561;-57
2021/12/02 05:02:43;;;;;;;;;0.20;0.20;;;;;6.44;64.21;100021.66;5056328;28;45363;-60
2021/12/02 05:05:09;;;;;;;;;0.80;0.80;;;;;6.41;64.40;100021.22;5055839;28;45693;-60
2021/12/02 05:07:34;;;;;;;;;2.00;0.75;;;;;6.29;63.95;100023.66;5055671;28;45330;-62
2021/12/02 05:10:00;;;;;;;;;0.50;0.00;;;;;6.26;64.67;100024.91;5055347;28;45370;-62
2021/12/02 05:12:26;;;;;;;;;3.00;1.00;;;;;6.28;65.25;100014.63;5054368;28;45374;-63
2021/12/02 05:14:51;;;;;;;;;2.00;0.75;;;;;6.12;64.65;99993.19;5037866;28;45469;-64
2021/12/02 05:17:17;;;;;;;;;2.00;1.50;;;;;5.94;63.74;99962.66;5054433;28;45577;-63
2021/12/02 05:19:42;;;;;;;;;1.00;0.50;;;;;6.29;64.99;100023.66;5037693;28;45847;-61
2021/12/02 05:22:08;;;;;;;;;1.00;1.00;;;;;6.32;64.62;100040.47;5049180;28;45348;-60
2021/12/02 05:24:34;;;;;;;;;1.00;1.00;;;;;6.29;64.23;100026.41;5054103;28;45405;-60
2021/12/02 05:26:59;;;;;;;;;2.50;1.00;;;;;6.22;64.78;100027.19;5055349;28;45459;-59
2021/12/02 05:29:25;;;;;;;;;1.00;1.00;;;;;6.23;65.07;100033.47;5055152;28;46433;-58
2021/12/02 05:31:50;;;;;;;;;1.00;1.00;;;;;6.20;64.78;100034.72;5053156;28;45518;-61
2021/12/02 05:34:16;;;;;;;;;3.50;1.00;;;;;6.07;65.29;100038.22;5054936;28;45385;-63
2021/12/02 05:36:41;;;;;;;;;5.00;1.75;;;;;6.08;65.91;100048.06;5055152;28;45739;-62
2021/12/02 05:39:07;;;;;;;;;3.25;3.25;;;;;6.02;66.09;100043.41;5053685;28;46192;-63
2021/12/02 05:41:33;;;;;;;;;2.00;2.00;;;;;6.03;65.97;100050.53;5055125;28;45369;-64
2021/12/02 05:43:59;;;;;;;;;1.25;1.00;;;;;6.02;65.92;100058.91;5054714;28;45295;-59
2021/12/02 05:46:25;;;;;;;;;3.00;2.00;;;;;5.98;66.35;100050.28;5055247;28;46008;-61
2021/12/02 05:48:50;;;;;;;;;2.50;2.00;;;;;5.97;66.15;100051.31;5036982;28;46581;-61
2021/12/02 05:51:16;;;;;;;;;1.50;1.50;;;;;5.93;65.97;100042.69;5053261;28;45769;-61
2021/12/02 05:53:41;;;;;;;;;1.50;1.00;;;;;5.96;65.80;100038.72;5036982;28;45339;-62
2021/12/02 05:56:07;;;;;;;;;3.25;1.50;;;;;5.96;65.75;100046.91;5055280;28;45637;-64
2021/12/02 05:58:33;;;;;;;;;6.75;1.75;;;;;5.97;65.67;100049.44;5036658;28;46063;-62
2021/12/02 06:00:58;;;;;;;;;4.00;2.00;;;;;5.90;65.48;100039.50;5054332;28;45433;-63
2021/12/02 06:03:24;;;;;;;;;3.75;3.75;;;;;5.94;65.85;100049.81;5054611;28;45282;-64
2021/12/02 06:05:49;;;;;;;;;3.50;3.00;;;;;5.92;65.11;100057.34;5087305;27;45455;-63
2021/12/02 06:08:15;;;;;;;;;5.50;3.25;;;;;5.87;65.02;100064.44;5054277;28;46829;-61
2021/12/02 06:10:41;;;;;;;;;3.80;2.00;;;;;5.59;65.68;100033.41;5054492;28;45331;-61
2021/12/02 06:13:07;;;;;;;;;2.80;1.40;;;;;5.80;65.89;100076.13;5055182;28;45409;-62
2021/12/02 06:15:32;;;;;;;;;4.00;4.00;;;;;5.76;65.58;100072.09;5054654;28;45538;-60
2021/12/02 06:17:58;;;;;;;;;4.00;2.00;;;;;5.76;65.62;100071.28;5052986;28;46366;-62
2021/12/02 06:20:23;;;;;;;;;4.75;3.00;;;;;5.75;66.12;100067.69;5054169;28;45351;-62
2021/12/02 06:22:49;;;;;;;;;1.50;1.00;;;;;5.75;65.15;100070.41;5087084;27;45600;-62
2021/12/02 06:27:53;;;;;;;;;2.50;1.25;;;;;5.71;66.28;100071.84;5036047;28;46077;-61
2021/12/02 06:30:20;;;;;;;;;3.40;1.60;;;;;5.68;65.83;100078.53;5054106;28;45350;-63
2021/12/02 06:32:46;;;;;;;;;0.40;0.40;;;;;5.65;65.15;100081.63;5054573;28;45349;-65
2021/12/02 06:35:11;;;;;;;;;0.75;0.75;;;;;5.48;64.89;100056.56;5058247;28;45382;-63
2021/12/02 06:37:37;;;;;;;;;1.00;1.00;;;;;5.55;65.40;100070.25;5057820;28;45502;-60
2021/12/02 06:40:03;;;;;;;;;1.50;0.25;;;;;5.57;65.23;100066.28;5056463;28;45770;-61
2021/12/02 06:42:29;;;;;;;;;1.00;1.00;;;;;5.54;64.85;100080.28;5057669;28;45356;-61
2021/12/02 06:44:57;;;;;;;;;3.50;1.25;;;;;5.51;64.95;100086.09;5057644;28;45458;-60
2021/12/02 06:47:27;;;;;;;;;1.20;1.20;;;;;5.42;65.51;100079.13;5057722;28;47264;-63
2021/12/02 06:49:53;;;;;;;;;1.00;1.00;;;;;5.50;64.86;100083.59;5056088;28;45806;-63
2021/12/02 06:52:18;;;;;;;;;1.00;1.00;;;;;5.50;65.43;100087.16;5057673;28;45391;-58
2021/12/02 06:54:44;;;;;;;;;4.00;4.00;;;;;5.43;65.54;100084.38;5047052;28;45426;-61
2021/12/02 06:57:09;;;;;;;;;4.75;1.25;;;;;5.53;64.70;100107.69;5076320;28;47456;-63
2021/12/02 06:59:35;;;;;;;;;1.50;1.00;;;;;5.54;65.13;100118.41;5075438;28;45383;-59
2021/12/02 07:02:00;;;;;;;;;1.00;1.00;;;;;5.48;64.60;100118.31;5055966;28;45538;-57
2021/12/02 07:04:26;;;;;;;;;5.00;2.50;;;;;5.19;65.31;100074.72;5056431;28;45454;-60
2021/12/02 07:06:51;;;;;;;;;4.50;2.00;;;;;5.28;64.33;100108.91;5056818;28;45352;-63
2021/12/02 07:09:17;;;;;;;;;7.75;4.00;;;;;5.44;64.56;100136.91;5056982;28;45368;-62
2021/12/02 07:11:43;;;;;;;;;2.00;1.50;;;;;5.27;64.79;100109.09;5056052;28;45370;-63
2021/12/02 07:14:15;;;;;;;;;4.60;3.60;;;;;5.49;64.48;100149.97;5056233;28;45530;-63
2021/12/02 07:16:41;;;;;;;;;4.80;1.00;;;;;5.54;64.90;100161.09;5056837;28;47499;-60
2021/12/02 07:19:07;;;;;;;;;2.00;2.00;;;;;5.17;64.54;100086.81;5056090;28;45398;-59
2021/12/02 07:21:36;;;;;;;;;2.00;2.00;;;;;5.56;64.13;100154.44;5055669;28;45454;-63
2021/12/02 07:24:02;;;;;;;;;6.00;2.80;;;;;5.60;64.79;100156.78;5056063;28;45623;-64
2021/12/02 07:26:28;;;;;;;;;3.20;3.20;;;;;5.65;63.83;100163.31;5056561;28;45818;-61
2021/12/02 07:28:54;;;;;;;;;1.50;1.00;;;;;5.63;63.64;100168.13;5057076;28;45466;-60
2021/12/02 07:31:19;;;;;;;;;4.00;0.50;;;;;5.56;64.33;100180.84;5056947;28;45367;-60
2021/12/02 07:33:48;;;;;;;;;1.50;1.50;;;;;5.27;63.52;100129.00;5039248;28;45520;-61
2021/12/02 07:36:14;;;;;;;;;3.60;2.00;;;;;5.50;63.41;100179.72;5056802;28;46232;-62
2021/12/02 07:38:40;;;;;;;;;3.50;3.50;;;;;5.44;64.52;100175.03;5055688;28;45425;-63
2021/12/02 07:41:05;;;;;;;;;2.25;1.00;;;;;5.31;64.47;100175.72;5055781;28;45641;-63
2021/12/02 07:43:33;;;;;;;;;2.00;2.00;;;;;5.36;63.49;100166.97;5056003;28;45407;-62
2021/12/02 07:45:59;;;;;;;;;5.00;1.40;;;;;5.29;63.74;100172.38;5055867;28;45428;-59
2021/12/02 07:48:25;;;;;;;;;3.40;2.80;;;;;5.34;63.47;100167.16;5055669;28;45347;-61
2021/12/02 07:50:53;;;;;;;;;5.00;4.00;;;;;5.17;64.56;100128.47;5055837;28;45314;-59
2021/12/02 07:53:19;;;;;;;;;1.40;1.40;;;;;5.46;65.18;100155.78;5055923;28;45498;-63
2021/12/02 07:55:44;;;;;;;;;4.25;2.00;;;;;5.55;64.28;100163.66;5055480;28;45597;-62
2021/12/02 07:58:10;;;;;;;;;1.75;1.75;;;;;5.61;63.73;100164.75;5055105;28;45533;-60
2021/12/02 08:00:36;;;;;;;;;1.50;1.50;;;;;5.70;64.51;100173.63;5054982;28;45472;-62
2021/12/02 08:03:02;;;;;;;;;3.50;1.50;;;;;5.79;63.61;100171.63;5055506;28;45500;-62
2021/12/02 08:05:27;;;;;;;;;4.25;1.25;;;;;5.86;64.13;100180.72;5038544;28;46585;-61
2021/12/02 08:07:53;;;;;;;;;2.00;2.00;;;;;5.93;63.34;100188.94;5056576;28;45434;-61
2021/12/02 08:10:19;;;;;;;;;7.50;4.00;;;;;5.91;63.38;100172.81;5055062;28;45422;-62
2021/12/02 08:12:47;;;;;;;;;4.00;2.00;;;;;5.99;63.57;100192.78;5056899;28;45315;-61
2021/12/02 08:15:13;;;;;;;;;4.60;3.80;;;;;5.82;63.01;100158.47;5055941;28;46080;-62
2021/12/02 08:17:39;;;;;;;;;5.60;2.40;;;;;6.07;63.52;100192.66;5056246;28;45286;-57
2021/12/02 08:20:05;;;;;;;;;1.00;1.00;;;;;6.14;63.74;100196.28;5054986;28;45244;-64
2021/12/02 08:22:32;;;;;;;;;0.80;0.00;;;;;6.13;63.09;100210.94;5056364;28;45549;-61
2021/12/02 08:24:58;;;;;;;;;2.20;2.20;;;;;6.07;62.66;100209.00;5071945;27;48067;-61
2021/12/02 08:27:23;;;;;;;;;4.40;4.20;;;;;6.07;62.94;100211.72;5054552;28;45322;-59
2021/12/02 08:29:49;;;;;;;;;7.50;5.25;;;;;6.08;63.08;100217.00;5033221;28;45843;-54
2021/12/02 08:32:15;;;;;;;;;5.00;1.50;;;;;6.07;63.67;100218.03;5037744;28;45470;-64
2021/12/02 08:34:41;;;;;;;;;1.00;1.00;;;;;6.03;63.55;100222.19;5054630;28;46308;-61
2021/12/02 08:37:10;;;;;;;;;4.25;4.25;;;;;5.95;62.56;100204.06;5056306;28;45488;-61
2021/12/02 08:39:43;;;;;;;;;6.40;4.60;;;;;5.91;62.58;100196.47;5038073;28;45489;-61
2021/12/02 08:42:09;;;;;;;;;2.00;1.00;;;;;5.96;63.20;100215.78;5054780;28;45643;-55
2021/12/02 08:44:38;;;;;;;;;3.00;1.00;;;;;5.99;62.73;100222.75;5054028;28;47197;-60
2021/12/02 08:47:04;;;;;;;;;5.60;2.00;;;;;5.98;63.10;100224.63;5054267;28;45425;-56
2021/12/02 08:49:30;;;;;;;;;6.80;4.00;;;;;5.99;62.96;100236.34;5055948;28;45379;-61
2021/12/02 08:51:56;;;;;;;;;3.50;1.00;;;;;5.91;63.11;100238.19;5056097;28;45693;-61
2021/12/02 08:54:21;;;;;;;;;2.00;1.25;;;;;5.90;63.43;100241.09;5055623;28;46693;-61
2021/12/02 08:56:47;;;;;;;;;7.00;4.00;;;;;5.91;63.36;100234.59;5053092;28;45511;-61
2021/12/02 08:59:13;;;;;;;;;6.50;5.25;;;;;5.94;63.38;100242.41;5055306;28;45397;-62
2021/12/02 09:01:39;;;;;;;;;5.80;3.40;;;;;5.97;62.98;100242.00;5037239;28;45684;-57
2021/12/02 09:04:05;;;;;;;;;5.00;4.00;;;;;5.96;63.61;100246.63;5055269;28;45365;-58
2021/12/02 09:06:31;;;;;;;;;7.25;4.25;;;;;5.96;63.47;100249.34;5070858;28;45398;-60
2021/12/02 09:08:58;;;;;;;;;6.80;4.00;;;;;6.00;63.63;100257.97;5087955;27;45385;-57
2021/12/02 09:11:25;;;;;;;;;7.20;3.60;;;;;5.90;63.12;100241.09;5054142;28;45744;-63
2021/12/02 09:13:56;;;;;;;;;12.00;5.60;;;;;5.88;62.55;100237.72;5053414;28;47042;-63
2021/12/02 09:16:22;;;;;;;;;6.00;4.40;;;;;5.96;63.11;100268.41;5053729;28;45481;-61
2021/12/02 09:18:47;;;;;;;;;5.75;3.50;;;;;6.03;62.65;100270.41;5070993;28;45365;-61
2021/12/02 09:21:13;;;;;;;;;1.25;1.25;;;;;6.06;63.58;100265.41;5055230;28;45387;-60
2021/12/02 09:23:38;;;;;;;;;8.00;4.75;;;;;6.14;63.19;100274.47;5087728;27;47683;-57
2021/12/02 09:26:04;;;;;;;;;4.25;4.00;;;;;6.17;62.65;100265.91;5055386;28;45306;-60
2021/12/02 09:28:29;;;;;;;;;4.75;4.00;;;;;6.32;62.64;100288.50;5053861;28;45389;-60
2021/12/02 09:30:55;;;;;;;;;7.00;4.50;;;;;6.26;62.87;100263.91;5033752;28;45561;-60
2021/12/02 09:33:20;;;;;;;;;1.25;1.25;;;;;6.47;62.61;100282.97;5051792;28;45982;-59
2021/12/02 09:35:46;;;;;;;;;5.00;4.75;;;;;6.49;62.07;100277.31;5055165;28;45343;-61
2021/12/02 09:38:11;;;;;;;;;4.50;3.00;;;;;6.57;61.92;100292.72;5055064;28;45378;-62
2021/12/02 09:40:39;;;;;;;;;4.25;2.50;;;;;6.60;62.23;100290.44;5055328;28;45332;-58
2021/12/02 09:43:05;;;;;;;;;4.40;3.20;;;;;6.60;62.04;100287.69;5053708;28;46809;-61
2021/12/02 09:45:30;;;;;;;;;2.00;2.00;;;;;6.60;61.64;100287.69;5087179;27;45460;-60
2021/12/02 09:47:56;;;;;;;;;5.75;3.00;;;;;6.57;61.97;100293.53;5054824;28;45422;-59
2021/12/02 09:50:29;;;;;;;;;6.75;5.00;;;;;6.48;61.68;100297.44;5055294;28;45533;-63
2021/12/02 09:53:00;;;;;;;;;4.80;2.00;;;;;6.53;62.01;100297.72;5054660;28;45601;-60
2021/12/02 09:55:40;;;;;;;;;4.40;3.80;;;;;6.58;62.20;100300.69;5053400;28;45430;-60
2021/12/02 09:58:10;;;;;;;;;3.40;2.60;;;;;6.64;61.81;100297.19;5087019;27;45439;-60
2021/12/02 10:00:39;;;;;;;;;5.00;1.60;;;;;6.49;61.99;100271.88;5055366;28;45265;-61
2021/12/02 10:03:15;;;;;;;;;2.00;2.00;;;;;6.81;61.74;100313.25;5054559;28;45472;-62
2021/12/02 10:05:56;;;;;;;;;3.20;1.00;;;;;6.85;61.59;100310.97;5053122;28;45395;-57
2021/12/02 10:08:28;;;;;;;;;2.40;2.20;;;;;6.74;61.62;100293.25;5054425;28;45382;-60
2021/12/02 10:10:57;;;;;;;;;5.80;3.00;;;;;6.80;60.83;100316.16;5058148;28;45455;-61
2021/12/02 10:13:30;;;;;;;;;3.20;1.00;;;;;6.88;60.20;100322.31;5040190;28;45418;-62
2021/12/02 10:16:31;;;;;;;;;2.00;2.00;;;;;6.87;60.00;100308.88;5058000;28;45289;-59
2021/12/02 10:19:02;;;;;;;;;5.80;1.00;;;;;6.82;60.67;100297.75;5056109;28;45525;-59
2021/12/02 10:24:16;;;;;;;;;1.20;1.00;;;;;7.15;59.75;100319.78;5056749;28;45865;-60
2021/12/02 10:26:49;;;;;;;;;0.00;0.00;;;;;7.11;59.54;100309.47;5056859;28;45479;-63
2021/12/02 10:29:20;;;;;;;;;2.20;2.20;;;;;7.09;58.52;100301.47;5048987;28;45375;-60
2021/12/02 10:31:47;;;;;;;;;0.60;0.60;;;;;7.14;57.98;100307.19;5043553;28;45438;-62
2021/12/02 10:34:14;;;;;;;;;1.00;1.00;;;;;7.12;57.22;100322.06;5037061;28;45341;-61
2021/12/02 10:36:43;;;;;;;;;5.80;3.80;;;;;7.03;56.38;100319.50;5068551;28;45314;-62
2021/12/02 10:39:20;;;;;;;;;1.00;1.00;;;;;6.69;56.49;100274.78;5043222;28;45434;-59
2021/12/02 10:41:46;;;;;;;;;2.00;1.00;;;;;6.93;57.31;100326.34;5056871;28;45279;-63
2021/12/02 10:44:15;;;;;;;;;1.80;1.00;;;;;6.89;55.91;100306.81;5054613;28;46515;-63
2021/12/02 10:47:03;;;;;;;;;2.80;1.00;;;;;6.40;56.17;100213.91;5055543;28;45480;-59
2021/12/02 10:49:35;;;;;;;;;1.80;1.00;;;;;7.09;56.86;100290.56;5057269;28;45383;-58
2021/12/02 10:52:03;;;;;;;;;1.80;1.00;;;;;7.03;55.73;100283.19;5055270;28;45579;-61
2021/12/02 10:54:34;;;;;;;;;1.40;0.00;;;;;7.04;56.11;100295.78;5055629;28;45804;-58
2021/12/02 10:57:06;;;;;;;;;5.00;2.60;;;;;6.80;55.47;100272.53;5055533;28;45370;-60
2021/12/02 10:59:35;;;;;;;;;2.00;1.00;;;;;7.07;55.41;100295.38;5056711;28;45406;-63
2021/12/02 11:02:07;;;;;;;;;3.00;3.00;;;;;7.22;55.61;100310.81;5055400;28;45784;-60
2021/12/02 11:04:40;;;;;;;;;2.00;0.60;;;;;7.23;55.70;100299.69;5055806;28;47598;-60
2021/12/02 11:07:10;;;;;;;;;0.00;0.00;;;;;7.31;55.15;100288.59;5057925;28;45344;-61
2021/12/02 11:09:36;;;;;;;;;2.40;1.00;;;;;7.12;54.89;100227.41;5057127;28;45432;-59
2021/12/02 11:12:10;;;;;;;;;2.75;2.75;;;;;7.70;54.70;100277.22;5056219;28;45366;-57
2021/12/02 11:14:39;;;;;;;;;1.80;1.20;;;;;7.94;53.66;100284.03;5056863;28;47273;-62
2021/12/02 11:17:07;;;;;;;;;3.80;2.00;;;;;7.98;53.95;100268.91;5089785;27;45752;-58
2021/12/02 11:19:34;;;;;;;;;3.80;1.00;;;;;8.26;52.55;100259.72;5056135;28;45412;-59
2021/12/02 11:22:13;;;;;;;;;2.80;1.80;;;;;10.49;48.68;100269.16;5056189;28;45335;-62
2021/12/02 11:24:39;;;;;;;;;1.40;1.40;;;;;13.04;43.61;100247.69;5055671;28;45531;-59
2021/12/02 11:27:10;;;;;;;;;3.40;2.40;;;;;14.74;38.71;100237.44;5089625;27;45332;-56
2021/12/02 11:29:49;;;;;;;;;3.40;2.40;;;;;12.47;40.62;100260.09;5042942;28;45477;-63
2021/12/02 11:32:35;;;;;;;;;1.00;1.00;;;;;10.89;43.48;100281.72;5048206;28;45982;-62
2021/12/02 11:35:07;;;;;;;;;1.60;1.60;;;;;10.02;45.38;100278.50;5056841;28;46654;-62
2021/12/02 11:37:37;;;;;;;;;2.20;1.80;;;;;9.27;44.92;100264.28;5038664;28;45734;-62
2021/12/02 11:40:16;;;;;;;;;0.60;0.60;;;;;8.76;46.56;100274.06;5057084;28;45333;-59
2021/12/02 11:42:44;;;;;;;;;1.00;1.00;;;;;8.48;48.11;100270.44;5056948;28;45274;-60
2021/12/02 11:45:11;;;;;;;;;0.00;0.00;;;;;8.24;47.84;100253.63;5055640;28;46270;-60
2021/12/02 11:47:36;;;;;;;;;1.20;1.20;;;;;8.12;47.64;100258.00;5055272;28;45350;-59
2021/12/02 11:50:03;;;;;;;;;1.50;1.50;;;;;8.03;48.07;100264.69;5056993;28;45579;-65
2021/12/02 11:52:29;;;;;;;;;0.80;0.80;;;;;7.92;47.53;100272.47;5057303;28;45361;-61
2021/12/02 11:54:58;;;;;;;;;0.50;0.50;;;;;7.71;48.29;100244.25;5056662;28;46398;-63
2021/12/02 11:57:23;;;;;;;;;0.00;0.00;;;;;7.76;47.96;100253.69;5044663;28;45880;-63